createdAt,value
2023-02-28T00:00:23.838Z,45.70
2023-02-28T00:02:52.376Z,43.30
2023-02-28T00:05:22.841Z,42.60
2023-02-28T00:07:51.613Z,40.40
2023-02-28T00:10:24.096Z,33.60
2023-02-28T00:12:53.380Z,33.50
2023-02-28T00:15:23.926Z,32.70
2023-02-28T00:17:52.548Z,41.30
2023-02-28T00:20:22.177Z,52.00
2023-02-28T00:22:51.903Z,61.60
2023-02-28T00:25:23.395Z,56.40
2023-02-28T00:27:52.043Z,62.00
2023-02-28T00:30:24.285Z,57.80
2023-02-28T00:32:53.852Z,40.60
2023-02-28T00:35:23.028Z,35.90
2023-02-28T00:37:51.496Z,20.90
2023-02-28T00:40:20.394Z,24.80
2023-02-28T00:42:48.810Z,14.10
2023-02-28T00:45:17.343Z,9.60
2023-02-28T00:47:47.663Z,6.20
2023-02-28T00:50:20.352Z,5.80
2023-02-28T00:52:51.625Z,6.40
2023-02-28T00:55:20.372Z,7.70
2023-02-28T00:57:50.211Z,6.10
2023-02-28T01:00:19.980Z,5.50
2023-02-28T01:02:48.406Z,5.70
2023-02-28T01:05:17.033Z,7.70
2023-02-28T01:07:47.547Z,13.90
2023-02-28T01:10:15.967Z,19.50
2023-02-28T01:12:44.737Z,14.30
2023-02-28T01:15:13.902Z,18.80
2023-02-28T01:17:42.408Z,25.20
2023-02-28T01:20:11.581Z,20.40
2023-02-28T01:22:40.276Z,21.00
2023-02-28T01:25:09.692Z,23.90
2023-02-28T01:27:38.261Z,19.90
2023-02-28T01:30:10.850Z,21.70
2023-02-28T01:32:40.083Z,26.50
2023-02-28T01:35:08.680Z,31.90
2023-02-28T01:37:38.456Z,47.50
2023-02-28T01:40:07.629Z,47.30
2023-02-28T01:42:36.351Z,39.10
2023-02-28T01:45:08.022Z,40.50
2023-02-28T01:47:39.847Z,38.60
2023-02-28T01:50:13.920Z,43.20
2023-02-28T01:52:42.786Z,38.20
2023-02-28T01:55:12.901Z,61.20
2023-02-28T01:57:48.050Z,62.30
2023-02-28T02:00:18.968Z,52.90
2023-02-28T02:02:53.128Z,54.00
2023-02-28T02:05:26.986Z,52.20
2023-02-28T02:10:36.666Z,36.40
2023-02-28T02:13:26.845Z,39.00
2023-02-28T02:15:55.322Z,45.40
2023-02-28T02:18:48.003Z,43.00
2023-02-28T02:21:55.916Z,32.20
2023-02-28T02:25:03.780Z,53.70
2023-02-28T02:27:42.254Z,34.60
2023-02-28T02:30:29.359Z,40.00
2023-02-28T02:33:39.389Z,48.20
2023-02-28T02:36:28.775Z,35.60
2023-02-28T02:39:17.726Z,35.30
2023-02-28T02:41:54.737Z,37.30
2023-02-28T02:44:25.667Z,36.80
2023-02-28T02:46:56.836Z,35.30
2023-02-28T02:49:27.594Z,23.60
2023-02-28T02:51:57.536Z,17.20
2023-02-28T02:54:30.541Z,15.40
2023-02-28T02:57:01.897Z,16.60
2023-02-28T02:59:30.437Z,15.50
2023-02-28T03:02:03.084Z,15.40
2023-02-28T03:04:37.614Z,15.50
2023-02-28T03:07:06.263Z,15.70
2023-02-28T03:09:39.759Z,15.80
2023-02-28T03:12:12.829Z,17.80
2023-02-28T03:15:05.307Z,17.60
2023-02-28T03:17:46.952Z,19.90
2023-02-28T03:20:17.268Z,22.00
2023-02-28T03:23:07.457Z,23.90
2023-02-28T03:25:44.909Z,23.20
2023-02-28T03:28:19.491Z,22.80
2023-02-28T03:30:55.891Z,24.90
2023-02-28T03:33:42.103Z,22.10
2023-02-28T03:36:13.694Z,22.80
2023-02-28T03:38:54.620Z,23.50
2023-02-28T03:41:32.864Z,22.90
2023-02-28T03:44:07.168Z,24.90
2023-02-28T03:46:39.709Z,25.70
2023-02-28T03:49:18.136Z,25.10
2023-02-28T03:51:46.567Z,25.70
2023-02-28T03:54:36.809Z,24.40
2023-02-28T03:57:12.132Z,24.30
2023-02-28T03:59:46.476Z,24.70
2023-02-28T04:02:15.171Z,24.90
2023-02-28T04:04:49.811Z,24.30
2023-02-28T04:07:18.509Z,23.80
2023-02-28T04:09:46.852Z,25.30
2023-02-28T04:12:18.674Z,26.20
2023-02-28T04:14:47.493Z,24.50
2023-02-28T04:17:20.212Z,26.50
2023-02-28T04:19:49.021Z,25.60
2023-02-28T04:22:19.017Z,29.20
2023-02-28T04:24:47.653Z,30.30
2023-02-28T04:27:17.010Z,33.10
2023-02-28T04:29:45.746Z,37.20
2023-02-28T04:32:14.568Z,32.20
2023-02-28T04:34:44.006Z,41.40
2023-02-28T04:37:14.397Z,37.20
2023-02-28T04:39:44.113Z,37.80
2023-02-28T04:42:12.771Z,33.00
2023-02-28T04:44:42.448Z,28.30
2023-02-28T04:47:11.913Z,24.90
2023-02-28T04:49:40.576Z,26.20
2023-02-28T04:52:09.051Z,24.20
2023-02-28T04:57:11.613Z,24.80
2023-02-28T04:59:39.956Z,22.70
2023-02-28T05:02:08.734Z,23.90
2023-02-28T05:04:37.343Z,23.30
2023-02-28T05:07:05.926Z,22.10
2023-02-28T05:09:34.635Z,20.40
2023-02-28T05:12:07.631Z,21.10
2023-02-28T05:14:38.251Z,21.80
2023-02-28T05:17:06.780Z,21.20
2023-02-28T05:19:36.668Z,22.40
2023-02-28T05:22:05.051Z,23.10
2023-02-28T05:24:41.164Z,26.70
2023-02-28T05:27:09.713Z,22.70
2023-02-28T05:29:42.864Z,21.90
2023-02-28T05:32:12.624Z,21.70
2023-02-28T05:34:41.157Z,20.30
2023-02-28T05:37:13.163Z,21.20
2023-02-28T05:39:42.493Z,21.00
2023-02-28T05:42:10.941Z,22.70
2023-02-28T05:44:41.711Z,23.30
2023-02-28T05:47:11.743Z,20.70
2023-02-28T05:49:41.318Z,21.80
2023-02-28T05:52:09.715Z,23.70
2023-02-28T05:54:38.074Z,23.30
2023-02-28T05:57:15.485Z,22.90
2023-02-28T05:59:51.706Z,22.70
2023-02-28T06:02:20.200Z,22.70
2023-02-28T06:04:49.042Z,23.60
2023-02-28T06:07:18.810Z,23.40
